Ben Arnold, Texas
Current Conditions -  °F | °C
As of 12:15 PM on Tuesday 21 Oct 2014 (Local Time) from KT35 Reporting Station
Clear Clear  
Wind Chill: 25°   Ceiling: Unl
Heat Index: 26°   Visibility: 10mi
Dew Point: 13°   Wind: 3mph
Humidity: 47%   Direction: 150°SSE
Pressure: 30.1"   Gusts: NA
Location:  30.9882°N, 97.103°W
Report Text: KT35 211715Z AUTO 15003KT 10SM CLR 25/13 A3010 RMK AO2 T02450126
Loading
Personal Weather Stations






























Interactive Weather Map
Tropical Storm Tracking
New forecast layout! Learn more

10-Day Weather Forecast

Advertisements
Track Severe Weather on mobile